Time;durP1;ratioP1;P1;durP2;ratioP2;P2;SDS_P1;SDS_P2;PMS_P1;PMS_P2;Temp;Humidity;BMP_temperature;BMP_pressure;BME280_temperature;BME280_humidity;BME280_pressure;Samples;Min_cycle;Max_cycle;Signal;HPM_P1;HPM_P2
2022/02/11 00:04:43;;;;;;;24.80;18.92;;;9.20;99.90;;;;;;4980032;28;20084;-51
2022/02/11 00:07:02;;;;;;;27.08;20.40;;;9.30;99.90;;;;;;5008613;28;20121;-50
2022/02/11 00:09:27;;;;;;;28.77;20.08;;;9.20;99.90;;;;;;4989509;28;20168;-49
2022/02/11 00:11:55;;;;;;;21.95;17.40;;;9.20;99.90;;;;;;4991464;28;20141;-49
2022/02/11 00:14:22;;;;;;;25.95;18.83;;;9.10;99.90;;;;;;5008682;28;20050;-49
2022/02/11 00:16:48;;;;;;;21.83;17.08;;;9.10;99.90;;;;;;5011902;28;20048;-50
2022/02/11 00:19:14;;;;;;;23.77;17.70;;;9.20;99.90;;;;;;5029319;28;20033;-49
2022/02/11 00:21:40;;;;;;;22.75;18.33;;;9.20;99.90;;;;;;5032368;28;20061;-49
2022/02/11 00:24:06;;;;;;;24.73;18.65;;;9.20;99.90;;;;;;5047361;28;20064;-49
2022/02/11 00:26:35;;;;;;;25.30;20.20;;;9.20;99.90;;;;;;4966618;28;20134;-50
2022/02/11 00:34:05;;;;;;;24.83;17.73;;;8.80;99.90;;;;;;5010475;28;20041;-50
2022/02/11 00:36:43;;;;;;;25.10;19.05;;;8.80;99.90;;;;;;4998913;28;20131;-50
2022/02/11 01:05:58;;;;;;;19.83;15.23;;;9.20;99.90;;;;;;4952776;29;20654;-49
2022/02/11 01:08:23;;;;;;;19.55;15.18;;;9.20;99.90;;;;;;4952520;29;20114;-49
2022/02/11 01:10:49;;;;;;;20.80;14.45;;;9.30;99.90;;;;;;4952372;29;20889;-50
2022/02/11 01:13:15;;;;;;;20.23;14.10;;;9.30;99.90;;;;;;4952629;29;20039;-49
2022/02/11 01:15:47;;;;;;;25.08;15.90;;;9.30;99.90;;;;;;4952406;29;20554;-49
2022/02/11 01:18:14;;;;;;;25.40;15.32;;;9.30;99.90;;;;;;4952498;29;20047;-48
2022/02/11 01:20:51;;;;;;;24.58;16.70;;;9.20;99.90;;;;;;4952099;28;20043;-48
2022/02/11 01:31:21;;;;;;;28.83;17.60;;;8.80;99.90;;;;;;4919995;28;20097;-49
2022/02/11 01:53:08;;;;;;;20.55;13.75;;;9.30;99.90;;;;;;4967136;28;20051;-49
2022/02/11 02:20:46;;;;;;;22.10;15.00;;;9.10;99.90;;;;;;4969447;28;20478;-49
2022/02/11 02:25:27;;;;;;;36.63;20.25;;;9.10;99.90;;;;;;5011632;28;20077;-49
2022/02/11 02:38:40;;;;;;;24.30;15.95;;;8.60;99.90;;;;;;5028699;28;20112;-50
2022/02/11 04:59:57;;;;;;;36.15;21.83;;;7.50;99.90;;;;;;4954726;28;20105;-48
2022/02/11 05:02:26;;;;;;;31.02;20.30;;;7.50;99.90;;;;;;4968151;28;20483;-48
2022/02/11 05:04:53;;;;;;;30.95;19.17;;;7.50;99.90;;;;;;4972061;28;20078;-48
2022/02/11 05:07:19;;;;;;;38.65;23.52;;;7.60;99.90;;;;;;4964106;28;20093;-48
2022/02/11 05:09:45;;;;;;;28.67;18.48;;;7.60;99.90;;;;;;4967485;28;20027;-48
2022/02/11 05:12:10;;;;;;;32.45;19.17;;;7.70;99.90;;;;;;4965273;28;20047;-47
2022/02/11 05:14:36;;;;;;;28.20;17.85;;;7.60;99.90;;;;;;4967932;28;20027;-48
2022/02/11 05:17:02;;;;;;;32.15;18.98;;;7.50;99.90;;;;;;4967956;28;20042;-48
2022/02/11 05:19:28;;;;;;;24.95;13.90;;;7.30;99.90;;;;;;4967768;28;20039;-48
2022/02/11 05:21:54;;;;;;;23.92;14.20;;;7.40;99.90;;;;;;4968198;28;20042;-48
2022/02/11 05:24:20;;;;;;;30.88;17.38;;;7.30;99.90;;;;;;4970941;28;20129;-47
2022/02/11 05:26:46;;;;;;;48.58;26.73;;;7.20;99.90;;;;;;4972137;28;20511;-49
2022/02/11 05:29:12;;;;;;;42.42;26.02;;;7.10;99.90;;;;;;4946094;28;20122;-48
2022/02/11 05:31:38;;;;;;;44.83;24.40;;;6.90;99.90;;;;;;4965684;28;20054;-48
2022/02/11 05:34:04;;;;;;;58.35;32.47;;;6.90;99.90;;;;;;4954350;28;20046;-47
2022/02/11 05:36:30;;;;;;;108.80;55.83;;;7.00;99.90;;;;;;4987181;28;20044;-48
2022/02/11 05:38:55;;;;;;;89.40;47.72;;;6.90;99.90;;;;;;5026489;28;20033;-48
2022/02/11 05:41:21;;;;;;;66.45;37.33;;;7.00;99.90;;;;;;5028429;28;20331;-48
2022/02/11 05:43:48;;;;;;;53.08;31.55;;;7.00;99.90;;;;;;5028865;28;20036;-48
2022/02/11 05:46:15;;;;;;;27.05;15.75;;;6.70;99.90;;;;;;5027171;28;20424;-48
2022/02/11 05:48:43;;;;;;;35.55;22.85;;;;;;;;;;5023482;28;20369;-48
2022/02/11 05:51:09;;;;;;;34.00;18.35;;;6.40;99.90;;;;;;5027308;28;20132;-49
2022/02/11 05:53:35;;;;;;;29.60;17.50;;;6.40;99.90;;;;;;5027850;28;20053;-48
2022/02/11 05:56:02;;;;;;;23.58;16.10;;;5.90;99.90;;;;;;4997281;28;20088;-48
2022/02/11 05:58:28;;;;;;;27.65;17.15;;;5.80;99.90;;;;;;5030163;28;20033;-48
2022/02/11 06:00:54;;;;;;;19.83;14.50;;;5.30;99.90;;;;;;5042330;28;20125;-48
2022/02/11 06:03:19;;;;;;;19.00;13.50;;;5.10;99.90;;;;;;5029269;28;20120;-48
2022/02/11 06:05:45;;;;;;;20.95;14.65;;;5.10;99.90;;;;;;5021472;28;20516;-48
2022/02/11 06:08:11;;;;;;;25.98;19.55;;;5.20;99.90;;;;;;5028078;28;20239;-48
2022/02/11 06:10:38;;;;;;;32.47;22.50;;;5.30;99.90;;;;;;5029629;28;20026;-48
2022/02/11 06:13:04;;;;;;;24.42;21.25;;;5.40;99.90;;;;;;5026415;28;20049;-48
2022/02/11 06:15:30;;;;;;;26.20;21.80;;;5.50;99.90;;;;;;5029133;28;20025;-48
2022/02/11 06:17:56;;;;;;;27.50;21.38;;;5.70;99.90;;;;;;5028317;28;20029;-46
2022/02/11 06:20:27;;;;;;;25.65;18.42;;;5.80;99.90;;;;;;5031988;28;20639;-48
2022/02/11 06:22:54;;;;;;;28.92;19.80;;;6.30;99.90;;;;;;5027473;28;20046;-48
2022/02/11 06:25:20;;;;;;;31.63;22.27;;;7.60;99.90;;;;;;5028075;28;20044;-48
2022/02/11 06:27:46;;;;;;;45.72;24.77;;;8.20;99.90;;;;;;5028296;28;20068;-48
2022/02/11 06:30:13;;;;;;;56.60;30.85;;;8.90;99.90;;;;;;5011701;28;20038;-48
2022/02/11 06:32:39;;;;;;;65.80;33.58;;;9.30;99.90;;;;;;5027935;28;20046;-48
2022/02/11 06:35:08;;;;;;;65.88;31.80;;;9.80;99.90;;;;;;5030635;28;20639;-48
2022/02/11 06:37:34;;;;;;;52.45;29.55;;;;;;;;;;5036979;28;20124;-48
2022/02/11 06:40:00;;;;;;;54.33;30.40;;;12.60;99.90;;;;;;5033353;28;20511;-49
2022/02/11 06:42:26;;;;;;;66.30;35.03;;;14.10;99.90;;;;;;4999084;28;20124;-48
2022/02/11 06:44:51;;;;;;;56.40;30.98;;;14.30;99.90;;;;;;5031326;28;20094;-49
2022/02/11 06:47:18;;;;;;;33.67;21.85;;;;;;;;;;5031310;28;20041;-49
2022/02/11 06:49:44;;;;;;;28.98;21.40;;;14.50;99.90;;;;;;5031892;28;20029;-50
2022/02/11 06:52:09;;;;;;;30.58;20.13;;;14.00;99.90;;;;;;5028667;28;20042;-49
2022/02/11 06:54:36;;;;;;;27.00;20.85;;;13.40;99.90;;;;;;5034448;28;20041;-51
2022/02/11 06:57:02;;;;;;;26.98;20.67;;;13.90;99.90;;;;;;5029713;28;20044;-48
2022/02/11 06:59:28;;;;;;;27.92;20.35;;;14.40;99.90;;;;;;5032809;28;20082;-49
2022/02/11 07:01:54;;;;;;;30.77;20.48;;;14.10;99.90;;;;;;5030333;28;20049;-49
2022/02/11 07:04:20;;;;;;;34.22;26.15;;;14.50;96.70;;;;;;5001992;28;20092;-49
2022/02/11 07:06:46;;;;;;;30.02;22.48;;;;;;;;;;5048940;28;20362;-49
2022/02/11 07:09:13;;;;;;;29.77;19.52;;;17.00;99.90;;;;;;5034252;28;20045;-49
2022/02/11 07:11:39;;;;;;;23.83;17.42;;;;;;;;;;5031680;28;20492;-49
2022/02/11 07:14:05;;;;;;;22.42;16.08;;;;;;;;;;5044831;28;20033;-49
2022/02/11 07:16:31;;;;;;;20.92;16.05;;;19.00;90.50;;;;;;5030334;28;20037;-49
2022/02/11 07:18:57;;;;;;;22.27;15.57;;;18.30;90.70;;;;;;5033599;28;20426;-49
2022/02/11 07:21:23;;;;;;;19.65;16.55;;;18.20;90.60;;;;;;5031632;28;20021;-49
2022/02/11 07:23:49;;;;;;;22.08;16.10;;;18.60;90.60;;;;;;5033884;28;20037;-49
2022/02/11 07:26:15;;;;;;;22.08;16.77;;;;;;;;;;5034099;28;20058;-49
2022/02/11 07:28:41;;;;;;;21.73;16.00;;;;;;;;;;5032855;28;20025;-49
2022/02/11 07:31:07;;;;;;;21.80;16.00;;;20.50;87.60;;;;;;5040212;28;20036;-49
2022/02/11 07:33:32;;;;;;;19.08;13.63;;;20.60;86.20;;;;;;5033516;28;20033;-49
2022/02/11 07:35:58;;;;;;;21.00;15.15;;;21.00;85.30;;;;;;5049438;28;20029;-49
2022/02/11 07:38:24;;;;;;;17.83;13.38;;;19.10;87.00;;;;;;5032133;28;20052;-50
2022/02/11 07:40:50;;;;;;;18.75;13.68;;;18.60;88.30;;;;;;5029675;28;20032;-49
2022/02/11 07:43:16;;;;;;;19.55;13.52;;;19.50;88.00;;;;;;5026581;28;20036;-49
2022/02/11 07:45:42;;;;;;;19.20;13.95;;;;;;;;;;5031418;28;20124;-49
2022/02/11 07:48:08;;;;;;;16.85;13.05;;;21.10;85.60;;;;;;5015585;28;20050;-49
2022/02/11 07:50:34;;;;;;;21.20;13.35;;;20.80;85.40;;;;;;5034655;28;20029;-50
2022/02/11 07:52:59;;;;;;;16.55;13.57;;;20.70;85.90;;;;;;5025006;28;20553;-49
2022/02/11 07:55:25;;;;;;;18.02;14.70;;;21.10;86.00;;;;;;5030099;28;20120;-50
2022/02/11 07:57:52;;;;;;;18.65;15.32;;;22.20;85.10;;;;;;5033040;28;20021;-49
2022/02/11 08:00:18;;;;;;;17.83;12.95;;;;;;;;;;5033353;28;20053;-47
2022/02/11 08:02:44;;;;;;;18.08;13.88;;;25.00;80.10;;;;;;5032990;28;20046;-47
2022/02/11 08:05:10;;;;;;;17.52;15.35;;;;;;;;;;5025962;28;20048;-47
2022/02/11 08:07:56;;;;;;;22.27;18.63;;;25.60;76.50;;;;;;5032477;28;20030;-49
2022/02/11 08:10:22;;;;;;;20.33;16.95;;;24.50;77.00;;;;;;5036684;28;20362;-48
2022/02/11 08:12:48;;;;;;;20.88;13.82;;;25.30;78.30;;;;;;4976972;28;20045;-48
2022/02/11 08:15:15;;;;;;;20.10;13.40;;;;;;;;;;5021398;28;20091;-48
2022/02/11 08:17:42;;;;;;;17.30;13.13;;;;;;;;;;5021741;28;20045;-48
2022/02/11 08:20:09;;;;;;;20.85;15.65;;;28.40;73.00;;;;;;5008676;28;20072;-50
2022/02/11 08:22:35;;;;;;;20.35;14.35;;;;;;;;;;5037103;28;20044;-50
2022/02/11 08:25:01;;;;;;;17.92;14.18;;;28.20;71.90;;;;;;5037767;28;20378;-50
2022/02/11 08:27:29;;;;;;;18.45;13.02;;;26.80;72.00;;;;;;5049021;28;20083;-51
2022/02/11 08:29:55;;;;;;;17.85;14.40;;;26.90;72.70;;;;;;5015286;28;20112;-53
2022/02/11 08:32:22;;;;;;;14.13;11.02;;;26.10;73.50;;;;;;5014372;28;20050;-51
2022/02/11 08:34:49;;;;;;;13.43;11.00;;;25.00;73.40;;;;;;5017228;28;20042;-51
2022/02/11 08:37:15;;;;;;;13.50;10.13;;;24.60;75.00;;;;;;5012360;28;20338;-51
2022/02/11 08:39:41;;;;;;;14.35;10.25;;;26.40;73.80;;;;;;4984748;28;20166;-51
2022/02/11 08:42:07;;;;;;;11.80;10.02;;;;;;;;;;4963330;28;20077;-50
2022/02/11 08:44:34;;;;;;;11.57;9.10;;;26.00;99.10;;;;;;5007212;28;20052;-51
2022/02/11 08:47:00;;;;;;;12.27;8.45;;;;;;;;;;5011174;28;20061;-50
2022/02/11 08:49:29;;;;;;;14.77;9.13;;;27.40;71.50;;;;;;5011243;28;20100;-52
2022/02/11 08:51:55;;;;;;;11.45;8.75;;;;;;;;;;5011719;28;20393;-51
2022/02/11 08:54:21;;;;;;;9.88;8.25;;;28.80;68.90;;;;;;5011032;28;20113;-51
2022/02/11 08:56:48;;;;;;;12.95;8.05;;;28.40;69.70;;;;;;5010189;28;20192;-51
2022/02/11 08:59:15;;;;;;;13.52;9.90;;;27.50;69.60;;;;;;5011615;28;20100;-50
2022/02/11 09:01:40;;;;;;;10.57;8.57;;;28.20;69.30;;;;;;5026883;28;20073;-51
2022/02/11 09:04:07;;;;;;;11.48;9.63;;;27.70;69.40;;;;;;5031016;28;20126;-51
2022/02/11 09:06:33;;;;;;;11.65;9.63;;;;;;;;;;5030227;28;20068;-49
2022/02/11 09:09:00;;;;;;;11.00;9.82;;;;;;;;;;5031135;28;20163;-47
2022/02/11 09:11:25;;;;;;;13.30;10.15;;;30.60;87.30;;;;;;5032278;28;20056;-52
2022/02/11 09:13:52;;;;;;;12.32;10.40;;;;;;;;;;5029624;28;20026;-53
2022/02/11 09:16:18;;;;;;;20.02;12.20;;;29.20;67.40;;;;;;5041520;28;20038;-53
2022/02/11 09:18:45;;;;;;;19.13;13.13;;;;;;;;;;5031309;28;20096;-47
2022/02/11 09:21:11;;;;;;;21.83;15.07;;;;;;;;;;5038955;28;20457;-54
2022/02/11 09:23:37;;;;;;;12.73;11.13;;;;;;;;;;5044644;28;20029;-49
2022/02/11 09:26:03;;;;;;;12.35;10.52;;;;;;;;;;5047350;28;20055;-48
2022/02/11 09:28:30;;;;;;;12.80;10.00;;;30.10;66.80;;;;;;5029962;28;20029;-53
2022/02/11 09:30:55;;;;;;;12.35;9.60;;;30.50;66.60;;;;;;5032365;28;20026;-52
2022/02/11 09:33:21;;;;;;;12.77;9.57;;;30.10;66.10;;;;;;5046311;28;20172;-46
2022/02/11 09:35:49;;;;;;;12.10;8.43;;;29.80;66.10;;;;;;4995658;28;20034;-49
2022/02/11 09:38:18;;;;;;;9.05;8.05;;;29.90;66.00;;;;;;5031311;28;20033;-49
2022/02/11 09:40:50;;;;;;;11.40;7.85;;;28.90;65.60;;;;;;5046316;28;20025;-49
2022/02/11 09:43:17;;;;;;;12.05;7.90;;;28.90;64.90;;;;;;5027175;28;20064;-50
2022/02/11 09:45:44;;;;;;;10.05;6.47;;;29.00;65.70;;;;;;5026837;28;20037;-51
2022/02/11 09:48:10;;;;;;;8.82;5.68;;;;;;;;;;5046212;28;20042;-49
2022/02/11 09:50:36;;;;;;;14.85;7.07;;;;;;;;;;5033166;28;20029;-47
2022/02/11 09:53:04;;;;;;;10.73;7.70;;;27.80;92.70;;;;;;5033522;28;20485;-49
2022/02/11 09:55:33;;;;;;;10.52;8.10;;;28.70;65.80;;;;;;5030503;28;20038;-48
2022/02/11 09:58:08;;;;;;;11.50;9.02;;;28.90;66.30;;;;;;5030278;28;20036;-46
2022/02/11 10:00:38;;;;;;;14.20;9.02;;;29.10;81.40;;;;;;5028656;28;20044;-48
2022/02/11 10:03:21;;;;;;;16.65;10.07;;;29.50;73.60;;;;;;5029793;28;20057;-47
2022/02/11 10:05:57;;;;;;;11.60;8.35;;;30.10;66.00;;;;;;5029710;28;20057;-48
2022/02/11 10:08:25;;;;;;;14.13;10.80;;;29.70;64.50;;;;;;5029517;28;20040;-49
2022/02/11 10:10:56;;;;;;;7.75;7.05;;;29.50;63.70;;;;;;5032870;28;20030;-47
2022/02/11 10:13:28;;;;;;;16.63;8.32;;;30.10;63.90;;;;;;5035625;28;20041;-47
2022/02/11 10:16:08;;;;;;;11.43;8.32;;;30.40;63.30;;;;;;5031561;28;20041;-47
2022/02/11 10:18:36;;;;;;;9.15;7.57;;;30.40;63.80;;;;;;5032741;28;20040;-50
2022/02/11 10:21:05;;;;;;;16.23;13.10;;;30.80;91.40;;;;;;5051424;28;20029;-50
2022/02/11 10:23:33;;;;;;;16.98;11.52;;;;;;;;;;5034454;28;20033;-49
2022/02/11 10:26:06;;;;;;;16.23;14.80;;;31.20;62.30;;;;;;5031611;28;20116;-50
2022/02/11 10:28:39;;;;;;;10.82;9.85;;;31.20;62.20;;;;;;5031412;28;20052;-49
2022/02/11 10:31:07;;;;;;;8.90;7.05;;;31.60;60.60;;;;;;5045012;28;20485;-50
2022/02/11 10:33:54;;;;;;;22.02;20.23;;;31.30;60.40;;;;;;5048121;28;20049;-50
2022/02/11 10:36:33;;;;;;;16.85;10.15;;;31.50;60.50;;;;;;5029947;28;20036;-50
2022/02/11 10:39:05;;;;;;;13.55;8.65;;;;;;;;;;5033283;28;20030;-49
2022/02/11 10:41:32;;;;;;;14.75;7.47;;;31.80;60.60;;;;;;5031160;28;20033;-50
2022/02/11 10:44:03;;;;;;;11.23;8.07;;;31.60;61.00;;;;;;5032671;28;20396;-51
2022/02/11 10:46:34;;;;;;;9.70;7.33;;;31.30;61.60;;;;;;5031018;28;20041;-50
2022/02/11 10:49:01;;;;;;;14.50;8.55;;;30.80;60.80;;;;;;5050374;28;20113;-50
2022/02/11 10:51:26;;;;;;;12.55;11.45;;;30.60;61.60;;;;;;5049347;28;20400;-50
2022/02/11 10:53:52;;;;;;;13.75;9.98;;;31.30;61.60;;;;;;5030563;28;20037;-50
2022/02/11 10:56:19;;;;;;;17.20;9.52;;;;;;;;;;5045774;28;20037;-49
2022/02/11 10:58:56;;;;;;;8.35;5.82;;;32.20;59.80;;;;;;5032882;28;20038;-50
2022/02/11 11:01:27;;;;;;;8.43;5.22;;;32.10;60.00;;;;;;5026673;28;20045;-49
2022/02/11 11:03:52;;;;;;;9.30;5.45;;;31.90;59.80;;;;;;5030458;28;20057;-50
2022/02/11 11:06:18;;;;;;;8.77;4.95;;;31.50;59.80;;;;;;5035990;28;20457;-50
2022/02/11 11:08:47;;;;;;;12.02;5.90;;;30.90;60.10;;;;;;5049108;28;20048;-51
2022/02/11 11:11:17;;;;;;;14.65;4.97;;;29.90;60.60;;;;;;5030626;28;20496;-50
2022/02/11 11:13:45;;;;;;;26.00;12.40;;;29.50;61.00;;;;;;5028514;28;20033;-51
2022/02/11 11:16:14;;;;;;;9.73;6.55;;;28.90;61.30;;;;;;5033429;28;20083;-51
2022/02/11 11:18:39;;;;;;;12.90;8.32;;;27.70;61.90;;;;;;5031063;28;20049;-50
2022/02/11 11:21:10;;;;;;;21.95;11.65;;;;;;;;;;5048273;28;20407;-48
2022/02/11 11:23:41;;;;;;;20.30;6.07;;;27.30;95.50;;;;;;5000167;28;20061;-48
2022/02/11 11:26:09;;;;;;;8.10;4.47;;;;;;;;;;5023133;28;20033;-48
2022/02/11 11:28:42;;;;;;;14.07;5.32;;;27.20;66.20;;;;;;4993063;28;20041;-48
2022/02/11 11:31:15;;;;;;;6.30;4.78;;;;;;;;;;4960844;28;20117;-47
2022/02/11 11:33:42;;;;;;;6.65;3.58;;;27.80;61.60;;;;;;4993161;28;20513;-48
2022/02/11 11:36:14;;;;;;;6.25;5.03;;;27.30;61.00;;;;;;4993211;28;20036;-47
2022/02/11 11:38:57;;;;;;;7.10;4.82;;;26.90;61.70;;;;;;4941279;28;20040;-47
2022/02/11 11:41:24;;;;;;;8.73;5.88;;;27.00;61.60;;;;;;4993709;28;20073;-50
2022/02/11 11:43:53;;;;;;;13.30;6.15;;;27.40;61.30;;;;;;4961051;28;20470;-49
2022/02/11 11:46:19;;;;;;;8.20;6.35;;;27.60;61.80;;;;;;4960907;28;20045;-49
2022/02/11 11:48:56;;;;;;;9.90;5.80;;;27.10;61.90;;;;;;4992624;28;20050;-50
2022/02/11 11:51:24;;;;;;;17.15;8.93;;;27.70;62.10;;;;;;4993012;28;20446;-50
2022/02/11 11:53:50;;;;;;;11.98;7.38;;;28.00;61.70;;;;;;4994872;28;20093;-50
2022/02/11 11:56:36;;;;;;;11.45;5.30;;;28.50;61.60;;;;;;5004699;28;20105;-50
2022/02/11 11:59:16;;;;;;;16.67;9.20;;;27.70;62.10;;;;;;5008097;28;20091;-51
2022/02/11 12:01:52;;;;;;;18.02;10.45;;;27.50;62.30;;;;;;5030742;28;20083;-50
2022/02/11 12:04:23;;;;;;;7.45;4.90;;;27.70;61.70;;;;;;5034885;28;20040;-47
2022/02/11 12:06:57;;;;;;;15.32;7.03;;;27.50;62.00;;;;;;5031410;28;20037;-51
2022/02/11 12:09:24;;;;;;;42.47;7.43;;;27.20;62.10;;;;;;5048038;28;20049;-49
2022/02/11 12:11:59;;;;;;;17.95;6.47;;;27.60;64.00;;;;;;5030972;28;20052;-49
2022/02/11 12:14:26;;;;;;;6.93;4.15;;;26.80;62.90;;;;;;5032437;28;20060;-50
2022/02/11 12:16:54;;;;;;;31.38;6.43;;;26.80;63.00;;;;;;5031626;28;20041;-47
2022/02/11 12:19:20;;;;;;;15.45;8.27;;;27.20;64.00;;;;;;5027511;28;20373;-48
2022/02/11 12:21:46;;;;;;;10.73;4.10;;;27.20;63.30;;;;;;5038557;28;20038;-47
2022/02/11 12:30:05;;;;;;;7.93;4.97;;;26.10;76.50;;;;;;5029240;28;20040;-48
2022/02/11 12:32:43;;;;;;;9.00;3.72;;;25.70;63.40;;;;;;5025271;28;20367;-51
2022/02/11 12:35:38;;;;;;;10.20;3.83;;;25.70;63.80;;;;;;5031386;28;20042;-52
2022/02/11 12:38:04;;;;;;;9.35;3.40;;;;;;;;;;5010363;28;20096;-50
2022/02/11 12:40:33;;;;;;;8.25;3.97;;;25.10;63.30;;;;;;5012085;28;20029;-50
2022/02/11 12:43:04;;;;;;;6.25;3.10;;;25.30;64.40;;;;;;5010891;28;20048;-50
2022/02/11 12:45:34;;;;;;;10.30;3.45;;;24.00;64.90;;;;;;4962326;28;20034;-47
2022/02/11 12:48:02;;;;;;;6.97;3.10;;;24.00;64.90;;;;;;5009566;28;20497;-43
2022/02/11 12:50:34;;;;;;;6.70;3.20;;;24.40;65.90;;;;;;5010220;28;20066;-46
2022/02/11 12:53:04;;;;;;;6.47;3.40;;;24.50;65.00;;;;;;5009850;28;20045;-52
2022/02/11 12:55:32;;;;;;;5.90;2.97;;;24.20;65.10;;;;;;5010855;28;20046;-53
2022/02/11 12:58:01;;;;;;;6.97;3.88;;;24.50;65.40;;;;;;5005091;28;20045;-55
2022/02/11 13:00:31;;;;;;;5.20;2.80;;;23.90;65.40;;;;;;5009617;28;20397;-49
2022/02/11 13:03:00;;;;;;;7.28;3.05;;;23.90;65.50;;;;;;5009851;28;20058;-50
2022/02/11 13:05:30;;;;;;;9.52;3.60;;;23.90;65.60;;;;;;5010379;28;20076;-47
2022/02/11 13:07:58;;;;;;;7.47;3.38;;;23.70;65.90;;;;;;5009594;28;20049;-51
2022/02/11 13:10:29;;;;;;;7.65;3.90;;;23.50;65.70;;;;;;4975790;28;20521;-48
2022/02/11 13:13:13;;;;;;;23.52;4.82;;;24.20;66.80;;;;;;4976232;28;20046;-48
2022/02/11 13:15:38;;;;;;;12.93;6.80;;;24.70;65.40;;;;;;5025150;28;20373;-50
2022/02/11 13:18:18;;;;;;;7.72;4.03;;;24.50;66.40;;;;;;5042366;28;20041;-48
2022/02/11 13:20:54;;;;;;;7.30;4.78;;;23.80;65.00;;;;;;5035030;28;20034;-46
2022/02/11 13:23:22;;;;;;;7.50;4.50;;;24.10;66.20;;;;;;5027724;28;20138;-50
2022/02/11 13:25:50;;;;;;;10.98;4.55;;;23.80;65.90;;;;;;5029210;28;20034;-51
2022/02/11 13:28:18;;;;;;;9.13;4.30;;;23.20;66.50;;;;;;5029267;28;20025;-50
2022/02/11 13:30:46;;;;;;;12.15;5.15;;;23.00;66.80;;;;;;5031594;28;20048;-50
2022/02/11 13:33:30;;;;;;;10.48;4.60;;;22.80;67.10;;;;;;5026520;28;20049;-52
2022/02/11 13:35:58;;;;;;;6.65;4.18;;;22.60;67.00;;;;;;5029705;28;20030;-50
2022/02/11 13:38:27;;;;;;;11.10;4.80;;;22.80;67.20;;;;;;5030279;28;20118;-50
2022/02/11 13:40:55;;;;;;;10.48;6.03;;;23.00;68.10;;;;;;5042753;28;20045;-43
2022/02/11 13:43:21;;;;;;;12.05;5.05;;;23.10;67.00;;;;;;5048161;28;20037;-51
2022/02/11 13:45:57;;;;;;;11.20;5.68;;;22.60;67.00;;;;;;5027728;28;20045;-52
2022/02/11 13:48:25;;;;;;;11.95;6.20;;;22.80;68.50;;;;;;5030363;28;20405;-52
2022/02/11 13:51:12;;;;;;;13.90;6.57;;;23.10;67.60;;;;;;5032824;28;20029;-52
2022/02/11 13:53:40;;;;;;;14.00;6.80;;;22.60;68.20;;;;;;5029984;28;20581;-52
2022/02/11 13:56:12;;;;;;;14.70;6.63;;;22.70;67.70;;;;;;5027611;28;20025;-51
2022/02/11 13:58:58;;;;;;;13.90;6.13;;;22.90;68.10;;;;;;5028507;28;20524;-53
2022/02/11 14:05:11;;;;;;;13.65;6.47;;;22.70;67.60;;;;;;5008080;28;20201;-52
2022/02/11 14:11:22;;;;;;;13.55;5.97;;;22.80;67.90;;;;;;5004286;28;20056;-52
2022/02/11 14:17:21;;;;;;;15.25;6.85;;;22.10;68.40;;;;;;5005678;28;20044;-52
2022/02/11 14:23:23;;;;;;;9.80;5.53;;;21.50;68.30;;;;;;5010712;28;20107;-52
2022/02/11 14:29:24;;;;;;;17.98;11.00;;;21.90;69.20;;;;;;5003359;28;20470;-49
2022/02/11 14:35:25;;;;;;;20.98;13.52;;;21.90;68.90;;;;;;5006037;28;20104;-52
2022/02/11 14:47:47;;;;;;;17.00;8.60;;;20.80;70.70;;;;;;5007382;28;20107;-52
2022/02/11 14:50:13;;;;;;;40.40;16.08;;;20.70;70.00;;;;;;5004781;28;20103;-52
2022/02/11 14:52:39;;;;;;;47.38;18.42;;;20.60;70.40;;;;;;5013442;28;20473;-52
2022/02/11 14:55:06;;;;;;;36.72;17.05;;;20.60;70.50;;;;;;5021418;28;20040;-52
2022/02/11 14:57:33;;;;;;;43.60;17.42;;;20.40;70.20;;;;;;5010971;28;20042;-51
2022/02/11 15:00:00;;;;;;;29.13;13.40;;;20.30;71.10;;;;;;5032889;28;20036;-51
2022/02/11 15:02:27;;;;;;;49.22;21.65;;;20.30;70.50;;;;;;5018119;28;20087;-53
2022/02/11 15:04:56;;;;;;;31.70;14.73;;;20.30;70.70;;;;;;5030589;28;20042;-49
2022/02/11 15:07:22;;;;;;;25.55;14.70;;;20.50;70.40;;;;;;5022996;28;20083;-49
2022/02/11 15:09:48;;;;;;;27.55;18.02;;;20.40;70.00;;;;;;5013754;28;20034;-49
2022/02/11 15:12:14;;;;;;;39.63;22.00;;;20.40;70.20;;;;;;5011412;28;20034;-50
2022/02/11 15:14:40;;;;;;;33.60;21.65;;;20.50;71.20;;;;;;5026706;28;20069;-52
2022/02/11 15:17:05;;;;;;;37.08;22.95;;;20.30;71.20;;;;;;5012812;28;20632;-52
2022/02/11 15:19:32;;;;;;;31.52;20.17;;;20.20;70.80;;;;;;5011334;28;20070;-52
2022/02/11 15:21:57;;;;;;;31.73;18.60;;;20.00;71.10;;;;;;5023589;28;20438;-51
2022/02/11 15:24:25;;;;;;;30.65;18.73;;;19.90;70.50;;;;;;5013632;28;20116;-49
2022/02/11 15:26:51;;;;;;;38.55;21.08;;;19.90;70.60;;;;;;5012083;28;20033;-52
2022/02/11 15:29:17;;;;;;;37.50;20.80;;;19.80;71.10;;;;;;5014006;28;20030;-51
2022/02/11 15:31:43;;;;;;;52.58;24.67;;;19.60;70.60;;;;;;5008124;28;20528;-53
2022/02/11 15:34:10;;;;;;;48.08;26.40;;;19.40;72.40;;;;;;5010236;28;20406;-49
2022/02/11 15:36:37;;;;;;;52.78;31.42;;;19.10;72.00;;;;;;5021870;28;20601;-51
2022/02/11 15:39:03;;;;;;;45.25;27.00;;;18.80;73.10;;;;;;5012594;28;20029;-48
2022/02/11 15:41:29;;;;;;;33.90;18.95;;;18.50;73.30;;;;;;5008110;28;20164;-50
2022/02/11 15:43:55;;;;;;;40.20;21.13;;;18.30;72.60;;;;;;5010201;28;20450;-50
2022/02/11 15:46:21;;;;;;;59.03;29.50;;;18.20;73.50;;;;;;5011796;28;20030;-49
2022/02/11 15:48:47;;;;;;;66.32;33.78;;;17.90;74.40;;;;;;5011662;28;20057;-46
2022/02/11 15:51:15;;;;;;;56.08;31.50;;;17.70;75.00;;;;;;5011173;28;20953;-43
2022/02/11 15:53:41;;;;;;;56.88;32.78;;;17.70;74.70;;;;;;5020522;28;20117;-43
2022/02/11 15:56:07;;;;;;;61.15;33.90;;;17.50;75.60;;;;;;5037621;28;20351;-43
2022/02/11 15:58:34;;;;;;;85.72;46.08;;;17.40;75.00;;;;;;5023456;28;20468;-43
2022/02/11 16:01:00;;;;;;;111.68;56.63;;;17.20;75.90;;;;;;5014963;28;20439;-51
2022/02/11 16:03:26;;;;;;;95.90;55.45;;;16.90;76.60;;;;;;4989291;28;20036;-50
2022/02/11 16:05:55;;;;;;;108.70;57.58;;;16.80;77.00;;;;;;5014559;28;20034;-49
2022/02/11 16:08:21;;;;;;;97.07;54.38;;;16.60;77.20;;;;;;5012789;28;20030;-45
2022/02/11 16:10:47;;;;;;;89.65;46.40;;;16.40;77.40;;;;;;5009157;28;20393;-44
2022/02/11 16:13:13;;;;;;;92.70;55.80;;;16.30;77.20;;;;;;5013014;28;20083;-44
2022/02/11 16:15:39;;;;;;;206.82;102.18;;;16.20;77.60;;;;;;5009378;28;20037;-45
2022/02/11 16:18:05;;;;;;;499.08;266.42;;;15.90;78.20;;;;;;5009085;28;20030;-48
2022/02/11 16:20:33;;;;;;;523.83;282.35;;;15.90;78.20;;;;;;5006741;28;20485;-47
2022/02/11 16:23:00;;;;;;;518.53;277.08;;;15.80;78.40;;;;;;5013394;28;20029;-46
2022/02/11 16:25:26;;;;;;;380.08;189.57;;;15.60;78.80;;;;;;4990554;28;20038;-46
2022/02/11 16:27:53;;;;;;;282.15;132.98;;;15.60;78.30;;;;;;4973814;28;20049;-46
2022/02/11 16:30:20;;;;;;;181.77;88.68;;;15.60;78.90;;;;;;4998957;28;20113;-47
2022/02/11 16:32:45;;;;;;;190.63;95.85;;;15.60;78.60;;;;;;5005510;28;20038;-47
2022/02/11 16:35:11;;;;;;;153.35;81.40;;;15.70;78.60;;;;;;4960810;28;20041;-46
2022/02/11 16:37:37;;;;;;;153.82;78.32;;;15.60;78.60;;;;;;4994489;28;20375;-46
2022/02/11 16:40:06;;;;;;;140.10;77.45;;;15.50;78.70;;;;;;5012243;28;20038;-47
2022/02/11 16:42:33;;;;;;;141.75;77.20;;;15.40;78.80;;;;;;5003689;28;20484;-46
2022/02/11 16:44:59;;;;;;;137.07;74.45;;;15.50;78.70;;;;;;5006832;28;20068;-47
2022/02/11 16:47:25;;;;;;;148.13;75.85;;;15.40;78.70;;;;;;5012308;28;20664;-46
2022/02/11 16:49:52;;;;;;;103.65;57.13;;;15.40;79.00;;;;;;5028239;28;20037;-47
2022/02/11 16:52:18;;;;;;;98.70;50.35;;;15.30;79.40;;;;;;5008920;28;20098;-46
2022/02/11 16:54:45;;;;;;;105.35;55.35;;;15.20;79.20;;;;;;5025943;28;20092;-46
2022/02/11 16:57:11;;;;;;;95.70;56.20;;;15.10;79.40;;;;;;5012422;28;20124;-46
2022/02/11 16:59:37;;;;;;;90.53;52.15;;;14.90;80.00;;;;;;5013347;28;20044;-46
2022/02/11 17:02:04;;;;;;;84.20;49.50;;;14.80;80.20;;;;;;5008578;28;20528;-47
2022/02/11 17:04:30;;;;;;;98.20;54.30;;;14.70;80.40;;;;;;5013842;28;20030;-46
2022/02/11 17:06:56;;;;;;;99.78;55.90;;;14.70;80.30;;;;;;5007057;28;20049;-46
2022/02/11 17:09:23;;;;;;;161.85;84.25;;;14.70;80.50;;;;;;5007818;28;20362;-46
2022/02/11 17:11:48;;;;;;;131.18;68.75;;;14.70;80.30;;;;;;5007748;28;20037;-48
2022/02/11 17:14:14;;;;;;;106.15;62.28;;;14.70;80.30;;;;;;5013727;28;20108;-48
2022/02/11 17:16:40;;;;;;;110.25;55.58;;;14.60;80.50;;;;;;5009945;28;20137;-49
2022/02/11 17:19:06;;;;;;;94.70;55.53;;;;;;;;;;5008153;28;20045;-48
2022/02/11 17:21:32;;;;;;;112.15;62.05;;;14.50;81.40;;;;;;5028449;28;20046;-48
2022/02/11 17:23:58;;;;;;;108.13;58.95;;;14.50;80.80;;;;;;5010164;28;20030;-48